createdAt,value
2022-12-01T00:14:39.094Z,35.1
2022-12-01T00:29:48.846Z,38
2022-12-01T00:44:59.779Z,36.5
2022-12-01T01:00:09.268Z,38.8
2022-12-01T01:15:18.575Z,37.4
2022-12-01T01:30:27.319Z,38
2022-12-01T01:45:40.658Z,39.4
2022-12-01T02:00:50.316Z,39.1
2022-12-01T02:16:02.852Z,39.3
2022-12-01T02:31:15.464Z,41.6
2022-12-01T02:46:25.240Z,42
2022-12-01T03:01:35.139Z,44.2
2022-12-01T03:16:45.240Z,41.2
2022-12-01T03:31:54.551Z,44.4
2022-12-01T03:47:07.254Z,40.9
2022-12-01T04:02:17.372Z,44.5
2022-12-01T04:17:26.742Z,55
2022-12-01T04:32:36.424Z,48.5
2022-12-01T04:47:45.769Z,50.1
2022-12-01T05:02:54.789Z,51
2022-12-01T05:18:04.247Z,47.9
2022-12-01T05:33:12.731Z,44.7
2022-12-01T05:48:22.092Z,48.5
2022-12-01T06:03:31.737Z,48.9
2022-12-01T06:18:41.082Z,47.9
2022-12-01T06:33:50.460Z,50.5
2022-12-01T06:49:02.821Z,49.6
2022-12-01T07:04:12.017Z,46.1
2022-12-01T07:19:27.146Z,47.6
2022-12-01T07:34:36.978Z,47.8
2022-12-01T07:49:47.286Z,47.7
2022-12-01T08:04:57.819Z,46.3
2022-12-01T08:20:07.277Z,41
2022-12-01T08:35:16.748Z,41.7
2022-12-01T08:50:26.254Z,41.4
2022-12-01T09:05:35.744Z,34.5
2022-12-01T09:20:45.646Z,41
2022-12-01T09:35:54.437Z,39.6
2022-12-01T09:51:04.099Z,34.8
2022-12-01T10:06:29.812Z,37.6
2022-12-01T10:21:42.579Z,37
2022-12-01T10:36:52.213Z,31.1
2022-12-01T10:52:01.382Z,30.3
2022-12-01T11:07:10.688Z,31.1
2022-12-01T11:22:22.240Z,29.2
2022-12-01T11:37:31.996Z,31.1
2022-12-01T11:52:41.251Z,29.9
2022-12-01T12:07:54.541Z,32.4
2022-12-01T12:23:12.604Z,29.4
2022-12-01T12:38:21.859Z,29.2
2022-12-01T12:53:31.122Z,34.4
2022-12-01T13:08:40.376Z,31.6
2022-12-01T13:23:50.112Z,30
2022-12-01T13:38:59.759Z,32.5
2022-12-01T13:54:12.935Z,31.5
2022-12-01T14:09:29.316Z,32.3
2022-12-01T14:24:39.164Z,30.8
2022-12-01T14:39:48.557Z,29.9
2022-12-01T14:54:58.326Z,32.7
2022-12-01T15:10:08.104Z,32.9
2022-12-01T15:25:18.081Z,33.5
2022-12-01T15:41:28.805Z,30.9
2022-12-01T15:56:43.248Z,32.5
2022-12-01T16:11:52.773Z,38.2
2022-12-01T16:27:02.039Z,30.8
2022-12-01T16:42:12.122Z,33.5
2022-12-01T16:59:49.505Z,47.8
2022-12-01T17:15:00.766Z,36.8
2022-12-01T17:30:10.128Z,30.9
2022-12-01T17:45:19.276Z,33.1
2022-12-01T18:00:28.744Z,35.8
2022-12-01T18:15:38.300Z,36
2022-12-01T18:30:48.005Z,37.8
2022-12-01T18:45:57.609Z,41.3
2022-12-01T19:01:07.232Z,38.1
2022-12-01T19:16:17.520Z,33.8
2022-12-01T19:31:26.861Z,33
2022-12-01T19:46:36.603Z,27.2
2022-12-01T20:01:46.295Z,27.5
2022-12-01T20:16:58.890Z,28.2
2022-12-01T20:32:12.227Z,29.5
2022-12-01T20:47:22.491Z,27.2
2022-12-01T21:02:32.410Z,25
2022-12-01T21:17:42.269Z,25.6
2022-12-01T21:32:51.634Z,23
2022-12-01T21:48:01.364Z,28.7
2022-12-01T22:03:10.898Z,28.2
2022-12-01T22:18:20.640Z,24.7
2022-12-01T22:33:30.348Z,28.2
2022-12-01T22:48:39.761Z,31.1
2022-12-01T23:03:49.082Z,27.7
2022-12-01T23:18:58.715Z,27.1
2022-12-01T23:34:08.245Z,27.9
2022-12-01T23:49:17.535Z,28.3
